createdAt,value
2023-12-26T00:00:15.607Z,44.35
2023-12-26T00:02:43.878Z,40.60
2023-12-26T00:05:11.994Z,38.33
2023-12-26T00:07:40.768Z,35.78
2023-12-26T00:10:09.025Z,31.85
2023-12-26T00:12:36.987Z,34.92
2023-12-26T00:15:05.425Z,21.73
2023-12-26T00:17:33.580Z,35.15
2023-12-26T00:20:01.809Z,32.40
2023-12-26T00:22:29.921Z,39.17
2023-12-26T00:24:58.012Z,33.10
2023-12-26T00:27:26.118Z,30.27
2023-12-26T00:29:54.266Z,23.80
2023-12-26T00:32:22.377Z,34.03
2023-12-26T00:34:50.531Z,35.30
2023-12-26T00:37:18.517Z,36.40
2023-12-26T00:39:47.361Z,33.55
2023-12-26T00:42:15.456Z,32.63
2023-12-26T00:44:46.025Z,32.78
2023-12-26T00:47:14.189Z,30.27
2023-12-26T00:49:42.710Z,28.95
2023-12-26T00:52:10.991Z,28.95
2023-12-26T00:54:39.440Z,33.35
2023-12-26T00:57:07.477Z,32.20
2023-12-26T00:59:35.768Z,37.08
2023-12-26T01:02:05.050Z,38.28
2023-12-26T01:04:33.121Z,34.15
2023-12-26T01:07:01.050Z,37.17
2023-12-26T01:09:29.982Z,35.20
2023-12-26T01:11:58.184Z,33.92
2023-12-26T01:14:26.165Z,38.70
2023-12-26T01:16:54.243Z,38.85
2023-12-26T01:19:22.401Z,38.25
2023-12-26T01:21:50.504Z,32.97
2023-12-26T01:24:18.534Z,34.33
2023-12-26T01:26:46.634Z,24.92
2023-12-26T01:29:14.698Z,28.20
2023-12-26T01:31:42.679Z,29.85
2023-12-26T01:34:11.123Z,29.45
2023-12-26T01:36:39.525Z,26.50
2023-12-26T01:39:08.145Z,27.35
2023-12-26T01:41:36.905Z,23.83
2023-12-26T01:44:05.143Z,26.88
2023-12-26T01:46:33.214Z,32.75
2023-12-26T01:49:02.348Z,32.72
2023-12-26T01:54:00.880Z,26.52
2023-12-26T01:56:30.809Z,30.92
2023-12-26T01:58:59.273Z,29.35
2023-12-26T02:01:27.331Z,30.60
2023-12-26T02:03:56.456Z,28.13
2023-12-26T02:08:52.775Z,27.73
2023-12-26T02:11:20.880Z,28.58
2023-12-26T02:13:48.973Z,31.48
2023-12-26T02:16:23.171Z,30.77
2023-12-26T02:18:52.327Z,29.02
2023-12-26T02:21:20.422Z,24.58
2023-12-26T02:23:55.177Z,30.98
2023-12-26T02:26:24.801Z,31.08
2023-12-26T02:28:54.737Z,27.25
2023-12-26T02:31:24.066Z,25.00
2023-12-26T02:33:52.557Z,23.65
2023-12-26T02:36:21.906Z,33.83
2023-12-26T02:38:49.931Z,32.65
2023-12-26T02:41:17.959Z,27.05
2023-12-26T02:43:46.002Z,27.92
2023-12-26T02:46:15.146Z,25.70
2023-12-26T02:48:43.187Z,22.75
2023-12-26T02:51:11.334Z,23.40
2023-12-26T02:53:39.444Z,23.67
2023-12-26T02:56:07.644Z,23.80
2023-12-26T02:58:35.650Z,24.30
2023-12-26T03:03:33.180Z,19.70
2023-12-26T03:06:01.498Z,19.92
2023-12-26T03:08:29.473Z,22.90
2023-12-26T03:10:57.431Z,22.80
2023-12-26T03:13:25.601Z,29.15
2023-12-26T03:15:53.614Z,25.52
2023-12-26T03:18:21.776Z,25.95
2023-12-26T03:20:50.027Z,24.55
2023-12-26T03:23:18.055Z,25.70
2023-12-26T03:25:46.091Z,21.70
2023-12-26T03:28:14.174Z,32.85
2023-12-26T03:30:42.087Z,28.48
2023-12-26T03:33:10.274Z,29.80
2023-12-26T03:35:38.419Z,27.30
2023-12-26T03:38:06.844Z,26.00
2023-12-26T03:40:35.150Z,27.05
2023-12-26T03:43:03.178Z,24.58
2023-12-26T03:45:31.208Z,26.98
2023-12-26T03:47:59.445Z,24.40
2023-12-26T03:50:27.688Z,24.35
2023-12-26T03:52:56.224Z,26.17
2023-12-26T03:55:24.297Z,28.98
2023-12-26T03:57:52.296Z,25.67
2023-12-26T04:00:20.270Z,28.17
2023-12-26T04:02:49.062Z,24.52
2023-12-26T04:05:17.815Z,29.33
2023-12-26T04:07:45.801Z,32.05
2023-12-26T04:10:13.970Z,36.03
2023-12-26T04:12:43.080Z,34.30
2023-12-26T04:15:11.298Z,32.28
2023-12-26T04:17:39.544Z,31.80
2023-12-26T04:20:08.688Z,24.98
2023-12-26T04:22:36.662Z,27.30
2023-12-26T04:25:06.543Z,26.52
2023-12-26T04:27:34.471Z,34.40
2023-12-26T04:30:02.534Z,43.70
2023-12-26T04:32:31.529Z,40.50
2023-12-26T04:34:59.549Z,36.97
2023-12-26T04:37:27.868Z,25.30
2023-12-26T04:39:55.858Z,20.88
2023-12-26T04:42:23.864Z,19.65
2023-12-26T04:44:51.830Z,18.90
2023-12-26T04:47:20.623Z,20.33
2023-12-26T04:49:48.598Z,20.20
2023-12-26T04:52:17.443Z,26.48
2023-12-26T04:54:45.665Z,25.27
2023-12-26T04:57:13.651Z,35.13
2023-12-26T04:59:44.057Z,37.47
2023-12-26T05:02:12.199Z,25.48
2023-12-26T05:04:40.546Z,27.38
2023-12-26T05:07:09.638Z,24.90
2023-12-26T05:09:37.981Z,20.42
2023-12-26T05:12:06.380Z,17.90
2023-12-26T05:14:34.618Z,21.15
2023-12-26T05:17:02.584Z,21.33
2023-12-26T05:19:30.635Z,33.35
2023-12-26T05:21:58.810Z,40.05
2023-12-26T05:24:29.561Z,25.25
2023-12-26T05:26:58.718Z,33.00
2023-12-26T05:29:26.663Z,34.47
2023-12-26T05:31:54.763Z,36.90
2023-12-26T05:34:22.957Z,49.15
2023-12-26T05:36:51.005Z,51.20
2023-12-26T05:39:19.447Z,55.88
2023-12-26T05:41:47.588Z,31.73
2023-12-26T05:44:15.983Z,34.50
2023-12-26T05:46:47.000Z,41.67
2023-12-26T05:49:15.562Z,38.13
2023-12-26T05:51:44.616Z,35.83
2023-12-26T05:54:12.841Z,32.45
2023-12-26T05:56:41.746Z,32.28
2023-12-26T06:01:38.573Z,26.77
2023-12-26T06:04:07.167Z,34.35
2023-12-26T06:06:35.244Z,30.20
2023-12-26T06:09:03.617Z,31.35
2023-12-26T06:11:32.279Z,29.83
2023-12-26T06:14:00.229Z,35.92
2023-12-26T06:16:28.212Z,56.15
2023-12-26T06:18:56.558Z,32.08
2023-12-26T06:21:24.782Z,33.22
2023-12-26T06:23:54.352Z,24.35
2023-12-26T06:26:22.994Z,29.40
2023-12-26T06:28:51.071Z,36.08
2023-12-26T06:31:20.404Z,41.58
2023-12-26T06:33:49.049Z,42.70
2023-12-26T06:36:18.617Z,51.28
2023-12-26T06:38:46.897Z,47.03
2023-12-26T06:41:15.514Z,52.60
2023-12-26T06:43:43.626Z,50.95
2023-12-26T06:46:11.687Z,50.45
2023-12-26T06:48:42.278Z,65.55
2023-12-26T06:51:11.076Z,79.43
2023-12-26T06:53:39.124Z,65.53
2023-12-26T06:56:07.389Z,66.13
2023-12-26T06:58:35.702Z,51.75
2023-12-26T07:01:04.419Z,53.08
2023-12-26T07:03:32.652Z,46.28
2023-12-26T07:06:00.997Z,46.20
2023-12-26T07:08:29.028Z,49.75
2023-12-26T07:10:57.154Z,44.88
2023-12-26T07:13:25.110Z,42.92
2023-12-26T07:15:53.595Z,46.53
2023-12-26T07:18:22.649Z,46.28
2023-12-26T07:23:19.633Z,40.47
2023-12-26T07:25:47.811Z,42.85
2023-12-26T07:28:18.752Z,37.80
2023-12-26T07:30:47.603Z,36.40
2023-12-26T07:33:16.714Z,31.77
2023-12-26T07:38:13.657Z,29.77
2023-12-26T07:40:42.253Z,28.58
2023-12-26T07:43:11.770Z,32.05
2023-12-26T07:45:39.793Z,28.50
2023-12-26T07:48:08.046Z,40.17
2023-12-26T07:50:36.695Z,34.78
2023-12-26T07:53:05.991Z,26.50
2023-12-26T07:55:34.510Z,28.85
2023-12-26T07:58:03.102Z,26.52
2023-12-26T08:00:31.675Z,27.63
2023-12-26T08:03:00.945Z,38.78
2023-12-26T08:05:30.191Z,24.15
2023-12-26T08:07:58.847Z,20.25
2023-12-26T08:10:27.794Z,20.98
2023-12-26T08:12:56.562Z,15.65
2023-12-26T08:15:25.235Z,13.38
2023-12-26T08:17:54.130Z,14.95
2023-12-26T08:20:23.538Z,17.55
2023-12-26T08:22:52.243Z,25.05
2023-12-26T08:25:20.881Z,27.65
2023-12-26T08:27:49.265Z,20.20
2023-12-26T08:30:18.818Z,17.25
2023-12-26T08:32:47.788Z,50.80
2023-12-26T08:35:16.556Z,28.08
2023-12-26T08:37:45.273Z,25.45
2023-12-26T08:40:13.924Z,25.48
2023-12-26T08:42:42.427Z,18.05
2023-12-26T08:45:11.352Z,11.98
2023-12-26T08:47:39.998Z,10.95
2023-12-26T08:50:08.936Z,15.32
2023-12-26T08:52:37.173Z,11.20
2023-12-26T08:55:06.051Z,11.88
2023-12-26T08:57:34.223Z,14.13
2023-12-26T09:00:02.792Z,9.43
2023-12-26T09:02:31.453Z,5.65
2023-12-26T09:05:00.920Z,9.98
2023-12-26T09:07:31.090Z,13.77
2023-12-26T09:09:59.802Z,14.20
2023-12-26T09:12:28.385Z,20.23
2023-12-26T09:14:56.980Z,19.40
2023-12-26T09:17:25.522Z,7.07
2023-12-26T09:19:54.052Z,7.47
2023-12-26T09:22:22.165Z,9.35
2023-12-26T09:24:50.439Z,11.50
2023-12-26T09:27:18.473Z,29.17
2023-12-26T09:29:46.501Z,15.65
2023-12-26T09:32:14.509Z,12.77
2023-12-26T09:34:42.624Z,20.67
2023-12-26T09:37:10.784Z,32.35
2023-12-26T09:39:38.755Z,22.88
2023-12-26T09:42:10.749Z,8.10
2023-12-26T09:44:39.311Z,12.40
2023-12-26T09:47:08.136Z,9.20
2023-12-26T09:49:36.697Z,18.05
2023-12-26T09:52:10.464Z,9.02
2023-12-26T09:54:46.852Z,6.88
2023-12-26T09:57:17.298Z,7.03
2023-12-26T09:59:49.290Z,5.60
2023-12-26T10:02:18.133Z,12.65
2023-12-26T10:04:47.197Z,10.68
2023-12-26T10:07:16.511Z,6.28
2023-12-26T10:09:45.025Z,16.52
2023-12-26T10:12:13.766Z,10.95
2023-12-26T10:14:42.602Z,8.95
2023-12-26T10:17:13.296Z,23.02
2023-12-26T10:19:41.895Z,16.23
2023-12-26T10:22:11.330Z,7.80
2023-12-26T10:24:41.261Z,6.00
2023-12-26T10:27:10.142Z,7.65
2023-12-26T10:29:38.856Z,7.43
2023-12-26T10:32:07.987Z,5.72
2023-12-26T10:34:36.963Z,9.07
2023-12-26T10:37:07.176Z,12.73
2023-12-26T10:39:36.276Z,7.70
2023-12-26T10:42:05.663Z,6.55
2023-12-26T10:45:00.088Z,4.90
2023-12-26T10:47:32.646Z,3.95
2023-12-26T10:50:03.777Z,4.35
2023-12-26T10:52:35.463Z,3.97
2023-12-26T10:55:08.026Z,3.55
2023-12-26T10:57:38.365Z,4.60
2023-12-26T11:00:50.654Z,3.40
2023-12-26T11:04:15.373Z,11.13
2023-12-26T11:07:58.338Z,2.97
2023-12-26T11:11:41.210Z,13.80
2023-12-26T11:15:23.827Z,12.98
2023-12-26T11:19:06.799Z,18.75
2023-12-26T11:22:49.991Z,15.35
2023-12-26T11:26:33.189Z,6.20
2023-12-26T11:30:16.364Z,27.70
2023-12-26T11:33:59.607Z,10.88
2023-12-26T11:37:42.753Z,42.63
2023-12-26T11:41:25.615Z,3.63
2023-12-26T11:45:08.708Z,4.97
2023-12-26T11:48:53.989Z,3.58
2023-12-26T11:52:37.468Z,4.43
2023-12-26T11:56:20.545Z,8.05
2023-12-26T12:00:03.554Z,3.85
2023-12-26T12:03:46.663Z,5.40
2023-12-26T12:07:29.461Z,5.38
2023-12-26T12:11:12.297Z,23.10
2023-12-26T12:14:55.743Z,40.92
2023-12-26T12:18:38.352Z,9.05
2023-12-26T12:22:21.084Z,5.28
2023-12-26T12:26:04.097Z,6.80
2023-12-26T12:29:46.453Z,8.32
2023-12-26T12:33:30.133Z,8.07
2023-12-26T12:37:12.945Z,6.78
2023-12-26T12:40:56.089Z,7.50
2023-12-26T12:44:39.698Z,9.48
2023-12-26T12:48:30.148Z,26.05
2023-12-26T12:52:20.101Z,37.58
2023-12-26T12:56:03.238Z,16.05
2023-12-26T12:59:53.141Z,7.05
2023-12-26T13:03:36.333Z,28.33
2023-12-26T13:07:26.127Z,36.30
2023-12-26T13:11:16.184Z,35.38
2023-12-26T13:15:05.829Z,101.63
2023-12-26T13:18:48.754Z,22.42
2023-12-26T13:22:38.997Z,11.13
2023-12-26T13:26:24.407Z,31.52
2023-12-26T13:30:14.080Z,41.42
2023-12-26T13:34:03.298Z,65.95
2023-12-26T13:37:53.693Z,43.22
2023-12-26T13:41:44.011Z,77.32
2023-12-26T13:45:34.027Z,68.93
2023-12-26T13:49:23.319Z,52.63
2023-12-26T13:52:14.338Z,55.72
2023-12-26T13:55:22.894Z,59.05
2023-12-26T13:57:51.740Z,62.60
2023-12-26T14:00:57.381Z,53.25
2023-12-26T14:03:26.192Z,69.63
2023-12-26T14:08:42.148Z,58.15
2023-12-26T14:13:58.118Z,41.20
2023-12-26T14:17:04.293Z,52.72
2023-12-26T14:19:34.179Z,50.90
2023-12-26T14:22:40.332Z,60.40
2023-12-26T14:25:09.070Z,75.93
2023-12-26T14:28:15.007Z,87.40
2023-12-26T14:30:44.851Z,100.90
2023-12-26T14:33:50.817Z,99.25
2023-12-26T14:36:56.982Z,84.35
2023-12-26T14:39:25.782Z,94.22
2023-12-26T14:42:32.161Z,81.30
2023-12-26T14:45:01.117Z,70.75
2023-12-26T14:50:17.001Z,64.05
2023-12-26T14:53:22.731Z,67.15
2023-12-26T14:55:51.667Z,84.32
2023-12-26T14:58:57.383Z,67.38
2023-12-26T15:01:27.878Z,77.82
2023-12-26T15:03:56.655Z,78.05
2023-12-26T15:06:25.267Z,64.97
2023-12-26T15:08:54.046Z,59.38
2023-12-26T15:11:22.813Z,60.17
2023-12-26T15:14:00.948Z,54.88
2023-12-26T15:16:40.002Z,77.53
2023-12-26T15:21:44.320Z,81.38
2023-12-26T15:24:14.239Z,66.78
2023-12-26T15:26:44.194Z,65.85
2023-12-26T15:29:13.031Z,64.90
2023-12-26T15:31:41.899Z,82.82
2023-12-26T15:36:39.456Z,90.80
2023-12-26T15:39:08.551Z,80.22
2023-12-26T15:41:37.926Z,60.28
2023-12-26T15:44:06.996Z,90.32
2023-12-26T15:46:35.692Z,91.85
2023-12-26T15:49:04.481Z,92.30
2023-12-26T15:51:33.463Z,96.93
2023-12-26T15:54:02.332Z,104.47
2023-12-26T15:56:31.189Z,90.10
2023-12-26T15:58:59.702Z,85.72
2023-12-26T16:01:28.649Z,97.63
2023-12-26T16:03:57.956Z,101.78
2023-12-26T16:06:29.480Z,94.13
2023-12-26T16:08:58.408Z,57.80
2023-12-26T16:11:27.445Z,87.97
2023-12-26T16:13:56.258Z,86.07
2023-12-26T16:16:24.928Z,80.03
2023-12-26T16:18:53.726Z,74.68
2023-12-26T16:21:23.883Z,45.80
2023-12-26T16:23:52.731Z,32.65
2023-12-26T16:26:23.217Z,95.32
2023-12-26T16:28:54.192Z,80.47
2023-12-26T16:31:23.488Z,119.45
2023-12-26T16:33:53.758Z,104.07
2023-12-26T16:36:22.713Z,60.42
2023-12-26T16:38:51.198Z,51.45
2023-12-26T16:41:19.844Z,46.08
2023-12-26T16:43:48.280Z,39.00
2023-12-26T16:46:17.298Z,82.88
2023-12-26T16:48:46.263Z,104.47
2023-12-26T16:51:15.177Z,88.85
2023-12-26T16:53:44.327Z,51.83
2023-12-26T16:56:14.147Z,33.05
2023-12-26T16:58:42.951Z,27.98
2023-12-26T17:01:11.542Z,43.58
2023-12-26T17:03:42.449Z,46.30
2023-12-26T17:06:12.141Z,34.70
2023-12-26T17:08:40.769Z,41.47
2023-12-26T17:11:11.737Z,45.50
2023-12-26T17:13:40.399Z,39.05
2023-12-26T17:16:17.542Z,36.30
2023-12-26T17:18:46.557Z,30.00
2023-12-26T17:21:15.462Z,66.20
2023-12-26T17:23:44.410Z,60.83
2023-12-26T17:28:45.980Z,53.22
2023-12-26T17:31:14.792Z,47.67
2023-12-26T17:33:43.630Z,47.88
2023-12-26T17:38:40.738Z,59.15
2023-12-26T17:41:09.818Z,54.03
2023-12-26T17:43:38.586Z,66.13
2023-12-26T17:46:07.476Z,77.72
2023-12-26T17:48:36.398Z,76.78
2023-12-26T17:53:34.342Z,44.67
2023-12-26T17:56:04.065Z,51.17
2023-12-26T17:58:33.666Z,95.13
2023-12-26T18:01:02.786Z,113.85
2023-12-26T18:03:31.492Z,103.68
2023-12-26T18:06:00.263Z,100.03
2023-12-26T18:08:30.320Z,98.78
2023-12-26T18:10:58.865Z,67.82
2023-12-26T18:13:27.500Z,51.90
2023-12-26T18:15:56.186Z,66.15
2023-12-26T18:18:26.225Z,66.65
2023-12-26T18:20:55.510Z,81.57
2023-12-26T18:23:24.161Z,44.00
2023-12-26T18:25:53.578Z,53.05
2023-12-26T18:28:23.202Z,45.30
2023-12-26T18:30:52.453Z,77.63
2023-12-26T18:35:50.559Z,59.50
2023-12-26T18:38:19.161Z,55.55
2023-12-26T18:40:48.199Z,44.17
2023-12-26T18:43:17.352Z,58.33
2023-12-26T18:45:46.257Z,53.50
2023-12-26T18:48:15.436Z,54.35
2023-12-26T18:50:44.355Z,47.30
2023-12-26T18:53:13.668Z,47.50
2023-12-26T18:55:43.359Z,43.50
2023-12-26T18:58:12.505Z,55.28
2023-12-26T19:00:42.204Z,52.88
2023-12-26T19:03:12.625Z,54.80
2023-12-26T19:05:41.348Z,79.00
2023-12-26T19:08:10.159Z,58.05
2023-12-26T19:10:39.001Z,51.85
2023-12-26T19:13:07.701Z,44.65
2023-12-26T19:15:40.534Z,45.35
2023-12-26T19:18:11.955Z,64.68
2023-12-26T19:20:40.685Z,55.58
2023-12-26T19:23:09.601Z,51.13
2023-12-26T19:25:42.883Z,29.73
2023-12-26T19:28:12.516Z,18.60
2023-12-26T19:30:41.857Z,64.00
2023-12-26T19:33:10.689Z,79.93
2023-12-26T19:35:39.660Z,58.47
2023-12-26T19:38:10.252Z,38.03
2023-12-26T19:40:39.019Z,57.95
2023-12-26T19:43:07.819Z,64.35
2023-12-26T19:45:36.513Z,65.80
2023-12-26T19:48:05.924Z,67.07
2023-12-26T19:50:35.244Z,70.30
2023-12-26T19:53:04.602Z,80.85
2023-12-26T19:55:33.456Z,83.43
2023-12-26T19:58:02.181Z,59.00
2023-12-26T20:00:31.597Z,91.18
2023-12-26T20:03:05.407Z,70.82
2023-12-26T20:05:42.237Z,83.60
2023-12-26T20:08:11.103Z,84.38
2023-12-26T20:10:40.646Z,85.00
2023-12-26T20:13:09.418Z,100.85
2023-12-26T20:15:38.184Z,102.28
2023-12-26T20:18:07.007Z,108.82
2023-12-26T20:20:35.894Z,113.95
2023-12-26T20:23:04.734Z,108.97
2023-12-26T20:25:33.510Z,92.10
2023-12-26T20:28:07.885Z,118.13
2023-12-26T20:30:37.020Z,105.30
2023-12-26T20:35:36.060Z,107.85
2023-12-26T20:38:04.553Z,131.98
2023-12-26T20:40:33.732Z,115.95
2023-12-26T20:43:02.266Z,112.75
2023-12-26T20:45:31.154Z,111.78
2023-12-26T20:48:00.051Z,107.45
2023-12-26T20:52:57.303Z,53.65
2023-12-26T20:55:27.462Z,96.50
2023-12-26T20:57:57.684Z,101.38
2023-12-26T21:00:30.086Z,91.35
2023-12-26T21:02:59.051Z,93.70
2023-12-26T21:05:27.642Z,89.05
2023-12-26T21:07:56.617Z,92.78
2023-12-26T21:10:25.347Z,69.93
2023-12-26T21:12:54.052Z,51.75
2023-12-26T21:15:22.562Z,63.60
2023-12-26T21:17:51.206Z,38.10
2023-12-26T21:20:19.934Z,98.18
2023-12-26T21:22:49.429Z,93.45
2023-12-26T21:25:18.024Z,80.10
2023-12-26T21:27:47.172Z,92.60
2023-12-26T21:30:15.835Z,97.30
2023-12-26T21:32:46.698Z,89.43
2023-12-26T21:35:15.511Z,86.32
2023-12-26T21:37:44.290Z,93.82
2023-12-26T21:40:13.401Z,87.35
2023-12-26T21:42:42.198Z,83.97
2023-12-26T21:45:11.936Z,84.53
2023-12-26T21:47:41.672Z,83.00
2023-12-26T21:50:10.441Z,68.50
2023-12-26T21:52:39.197Z,75.85
2023-12-26T21:55:08.216Z,83.63
2023-12-26T21:57:36.815Z,72.13
2023-12-26T22:00:06.671Z,74.97
2023-12-26T22:02:35.479Z,72.30
2023-12-26T22:05:04.408Z,61.60
2023-12-26T22:07:32.988Z,69.85
2023-12-26T22:10:01.658Z,63.03
2023-12-26T22:12:30.319Z,72.03
2023-12-26T22:15:08.999Z,72.75
2023-12-26T22:17:44.944Z,73.70
2023-12-26T22:20:13.514Z,74.20
2023-12-26T22:22:42.367Z,73.97
2023-12-26T22:25:10.761Z,71.95
2023-12-26T22:27:39.283Z,86.20
2023-12-26T22:30:08.578Z,82.07
2023-12-26T22:32:36.889Z,78.72
2023-12-26T22:35:05.414Z,86.55
2023-12-26T22:37:33.654Z,80.25
2023-12-26T22:40:02.196Z,75.05
2023-12-26T22:42:30.588Z,79.15
2023-12-26T22:44:59.220Z,66.78
2023-12-26T22:47:27.394Z,77.28
2023-12-26T22:49:55.541Z,73.68
2023-12-26T22:52:23.668Z,57.28
2023-12-26T22:54:51.679Z,46.15
2023-12-26T22:57:20.213Z,50.20
2023-12-26T22:59:48.303Z,57.97
2023-12-26T23:02:16.463Z,55.45
2023-12-26T23:04:44.458Z,47.15
2023-12-26T23:07:12.582Z,50.60
2023-12-26T23:09:40.527Z,48.88
2023-12-26T23:12:08.476Z,43.58
2023-12-26T23:14:36.637Z,44.95
2023-12-26T23:17:05.050Z,51.03
2023-12-26T23:19:33.156Z,52.70
2023-12-26T23:22:01.192Z,50.15
2023-12-26T23:24:29.264Z,50.60
2023-12-26T23:26:57.234Z,52.97
2023-12-26T23:29:26.076Z,51.28
2023-12-26T23:31:54.215Z,48.08
2023-12-26T23:34:30.192Z,52.83
2023-12-26T23:37:07.212Z,46.67
2023-12-26T23:39:35.285Z,48.20
2023-12-26T23:42:05.583Z,48.67
2023-12-26T23:44:33.709Z,48.60
2023-12-26T23:47:01.753Z,49.78
2023-12-26T23:49:30.007Z,45.47
2023-12-26T23:51:58.132Z,42.95
2023-12-26T23:54:26.161Z,52.17
2023-12-26T23:56:54.274Z,42.13
2023-12-26T23:59:22.307Z,41.13
